createdAt,value
2023-04-30T00:00:35.788Z,2.30
2023-04-30T00:03:04.786Z,2.90
2023-04-30T00:05:32.733Z,2.67
2023-04-30T00:08:00.536Z,2.60
2023-04-30T00:10:28.243Z,2.63
2023-04-30T00:12:57.790Z,2.57
2023-04-30T00:15:26.027Z,2.90
2023-04-30T00:17:55.396Z,2.30
2023-04-30T00:20:23.218Z,1.83
2023-04-30T00:22:51.094Z,2.10
2023-04-30T00:25:19.156Z,2.53
2023-04-30T00:27:47.015Z,2.20
2023-04-30T00:30:14.896Z,2.27
2023-04-30T00:32:42.889Z,2.57
2023-04-30T00:35:12.808Z,2.10
2023-04-30T00:37:40.746Z,2.13
2023-04-30T00:40:10.348Z,2.43
2023-04-30T00:42:38.169Z,2.23
2023-04-30T00:45:07.781Z,2.17
2023-04-30T00:47:36.629Z,2.13
2023-04-30T00:50:04.947Z,2.00
2023-04-30T00:52:34.456Z,2.40
2023-04-30T00:55:02.674Z,2.13
2023-04-30T00:57:30.535Z,2.17
2023-04-30T00:59:58.510Z,2.50
2023-04-30T01:02:26.534Z,2.23
2023-04-30T01:04:54.743Z,2.80
2023-04-30T01:07:22.649Z,2.33
2023-04-30T01:09:52.190Z,2.27
2023-04-30T01:12:22.556Z,2.63
2023-04-30T01:14:54.695Z,2.13
2023-04-30T01:17:24.971Z,2.20
2023-04-30T01:19:53.094Z,2.17
2023-04-30T01:22:31.262Z,2.50
2023-04-30T01:25:09.109Z,2.93
2023-04-30T01:28:06.471Z,3.70
2023-04-30T01:30:34.647Z,3.50
2023-04-30T01:33:02.996Z,4.03
2023-04-30T01:35:46.524Z,4.17
2023-04-30T01:38:20.858Z,4.33
2023-04-30T01:40:52.047Z,5.10
2023-04-30T01:43:23.993Z,4.60
2023-04-30T01:45:59.874Z,4.60
2023-04-30T01:48:32.983Z,5.30
2023-04-30T01:51:05.969Z,5.97
2023-04-30T01:53:40.766Z,5.73
2023-04-30T01:56:11.044Z,5.33
2023-04-30T01:58:41.026Z,6.37
2023-04-30T02:01:08.708Z,5.97
2023-04-30T02:03:37.036Z,5.77
2023-04-30T02:06:05.392Z,6.10
2023-04-30T02:08:33.320Z,5.93
2023-04-30T02:11:01.472Z,5.80
2023-04-30T02:13:29.154Z,6.40
2023-04-30T02:15:58.240Z,6.50
2023-04-30T02:18:26.342Z,6.13
2023-04-30T02:20:54.385Z,5.87
2023-04-30T02:23:22.092Z,5.93
2023-04-30T02:25:50.131Z,5.90
2023-04-30T02:28:17.829Z,5.33
2023-04-30T02:30:45.504Z,5.30
2023-04-30T02:33:14.933Z,5.97
2023-04-30T02:35:42.615Z,4.93
2023-04-30T02:38:10.764Z,5.40
2023-04-30T02:40:38.442Z,5.57
2023-04-30T02:43:06.463Z,5.20
2023-04-30T02:45:34.198Z,4.60
2023-04-30T02:48:02.394Z,5.17
2023-04-30T02:50:31.485Z,5.03
2023-04-30T02:52:59.609Z,5.10
2023-04-30T02:55:27.280Z,4.80
2023-04-30T02:57:54.968Z,4.83
2023-04-30T03:00:22.977Z,4.93
2023-04-30T03:02:50.777Z,4.80
2023-04-30T03:05:19.039Z,4.53
2023-04-30T03:07:48.056Z,4.60
2023-04-30T03:10:16.546Z,4.83
2023-04-30T03:12:44.232Z,3.77
2023-04-30T03:15:12.464Z,4.50
2023-04-30T03:17:40.290Z,4.03
2023-04-30T03:20:09.154Z,4.33
2023-04-30T03:22:36.854Z,4.30
2023-04-30T03:25:06.735Z,3.87
2023-04-30T03:27:34.422Z,4.17
2023-04-30T03:30:02.123Z,4.10
2023-04-30T03:32:29.820Z,4.03
2023-04-30T03:34:57.541Z,3.63
2023-04-30T03:37:25.539Z,3.30
2023-04-30T03:39:54.047Z,3.73
2023-04-30T03:42:24.426Z,3.40
2023-04-30T03:44:52.371Z,3.93
2023-04-30T03:47:20.309Z,3.30
2023-04-30T03:49:55.864Z,3.53
2023-04-30T03:52:24.217Z,3.40
2023-04-30T03:54:52.242Z,3.30
2023-04-30T03:57:20.604Z,3.30
2023-04-30T03:59:50.596Z,3.70
2023-04-30T04:02:19.144Z,3.00
2023-04-30T04:04:47.568Z,2.67
2023-04-30T04:07:15.942Z,3.00
2023-04-30T04:09:43.854Z,3.10
2023-04-30T04:12:11.885Z,2.80
2023-04-30T04:14:39.732Z,3.03
2023-04-30T04:17:09.231Z,3.10
2023-04-30T04:19:37.601Z,3.60
2023-04-30T04:22:05.635Z,3.03
2023-04-30T04:24:33.655Z,2.90
2023-04-30T04:27:03.385Z,2.93
2023-04-30T04:29:31.253Z,2.93
2023-04-30T04:32:00.434Z,3.10
2023-04-30T04:34:30.298Z,2.27
2023-04-30T04:36:58.905Z,2.70
2023-04-30T04:39:26.900Z,2.50
2023-04-30T04:41:55.239Z,2.37
2023-04-30T04:44:24.009Z,2.63
2023-04-30T04:46:54.024Z,2.37
2023-04-30T04:49:22.645Z,2.10
2023-04-30T04:51:51.956Z,2.50
2023-04-30T04:54:20.240Z,2.60
2023-04-30T04:56:48.476Z,2.30
2023-04-30T04:59:16.450Z,2.70
2023-04-30T05:01:44.291Z,2.37
2023-04-30T05:04:13.799Z,2.97
2023-04-30T05:06:42.542Z,2.37
2023-04-30T05:09:11.627Z,2.17
2023-04-30T05:11:41.393Z,2.40
2023-04-30T05:14:09.128Z,2.47
2023-04-30T05:16:36.909Z,2.27
2023-04-30T05:19:04.716Z,2.20
2023-04-30T05:21:33.003Z,2.50
2023-04-30T05:24:01.335Z,2.23
2023-04-30T05:26:30.369Z,2.37
2023-04-30T05:28:58.061Z,2.20
2023-04-30T05:31:25.848Z,2.30
2023-04-30T05:33:53.567Z,2.10
2023-04-30T05:36:21.434Z,2.20
2023-04-30T05:38:49.535Z,2.27
2023-04-30T05:41:17.220Z,1.80
2023-04-30T05:43:46.249Z,2.10
2023-04-30T05:46:13.996Z,2.30
2023-04-30T05:48:42.424Z,2.23
2023-04-30T05:51:10.734Z,2.40
2023-04-30T05:53:38.533Z,2.00
2023-04-30T05:56:06.734Z,2.10
2023-04-30T05:58:34.593Z,2.10
2023-04-30T06:01:04.611Z,2.40
2023-04-30T06:03:32.963Z,2.23
2023-04-30T06:06:00.737Z,2.20
2023-04-30T06:08:29.970Z,2.17
2023-04-30T06:10:57.670Z,1.93
2023-04-30T06:13:26.106Z,2.20
2023-04-30T06:15:54.417Z,2.30
2023-04-30T06:18:23.690Z,2.50
2023-04-30T06:20:51.399Z,2.00
2023-04-30T06:23:19.098Z,1.67
2023-04-30T06:25:47.275Z,1.80
2023-04-30T06:28:14.954Z,2.20
2023-04-30T06:30:42.652Z,1.80
2023-04-30T06:33:10.419Z,1.90
2023-04-30T06:35:40.763Z,1.83
2023-04-30T06:38:08.893Z,1.80
2023-04-30T06:40:36.665Z,1.80
2023-04-30T06:43:04.762Z,1.93
2023-04-30T06:45:32.470Z,1.63
2023-04-30T06:48:00.618Z,1.80
2023-04-30T06:50:28.561Z,1.73
2023-04-30T06:52:57.876Z,2.10
2023-04-30T06:55:26.491Z,1.77
2023-04-30T06:57:54.513Z,1.80
2023-04-30T07:00:22.392Z,1.83
2023-04-30T07:02:52.675Z,2.10
2023-04-30T07:05:20.684Z,1.77
2023-04-30T07:07:49.292Z,1.50
2023-04-30T07:10:18.683Z,1.83
2023-04-30T07:12:47.093Z,1.73
2023-04-30T07:15:14.956Z,1.80
2023-04-30T07:17:43.315Z,2.30
2023-04-30T07:20:13.222Z,1.90
2023-04-30T07:22:41.183Z,1.80
2023-04-30T07:25:10.522Z,1.77
2023-04-30T07:27:40.558Z,1.63
2023-04-30T07:30:10.125Z,1.83
2023-04-30T07:32:38.153Z,1.97
2023-04-30T07:35:06.837Z,2.10
2023-04-30T07:37:35.826Z,1.90
2023-04-30T07:40:04.321Z,1.90
2023-04-30T07:42:32.450Z,2.20
2023-04-30T07:45:04.246Z,2.07
2023-04-30T07:47:32.026Z,2.03
2023-04-30T07:49:59.940Z,1.90
2023-04-30T07:52:27.870Z,2.17
2023-04-30T07:54:55.684Z,1.70
2023-04-30T07:57:23.658Z,1.77
2023-04-30T07:59:53.169Z,1.60
2023-04-30T08:02:22.959Z,1.70
2023-04-30T08:04:51.007Z,1.80
2023-04-30T08:07:18.809Z,1.90
2023-04-30T08:09:46.729Z,1.93
2023-04-30T08:12:14.990Z,1.80
2023-04-30T08:14:42.763Z,2.07
2023-04-30T08:17:10.436Z,1.90
2023-04-30T08:19:39.447Z,2.20
2023-04-30T08:22:07.164Z,2.00
2023-04-30T08:24:35.236Z,1.97
2023-04-30T08:27:04.101Z,2.10
2023-04-30T08:29:31.813Z,1.93
2023-04-30T08:32:00.151Z,2.00
2023-04-30T08:34:28.063Z,1.70
2023-04-30T08:36:57.532Z,1.80
2023-04-30T08:39:25.999Z,1.70
2023-04-30T08:41:56.430Z,1.70
2023-04-30T08:44:24.817Z,2.27
2023-04-30T08:46:53.233Z,1.97
2023-04-30T08:49:21.979Z,1.93
2023-04-30T08:51:51.543Z,1.80
2023-04-30T08:54:20.960Z,2.17
2023-04-30T08:56:49.062Z,1.60
2023-04-30T08:59:16.741Z,2.00
2023-04-30T09:01:45.238Z,1.90
2023-04-30T09:04:12.968Z,2.03
2023-04-30T09:06:41.213Z,1.90
2023-04-30T09:09:13.736Z,2.13
2023-04-30T09:11:43.069Z,2.10
2023-04-30T09:14:11.427Z,1.90
2023-04-30T09:16:58.114Z,2.17
2023-04-30T09:19:26.112Z,2.20
2023-04-30T09:21:54.541Z,2.20
2023-04-30T09:24:22.224Z,2.33
2023-04-30T09:26:51.821Z,2.33
2023-04-30T09:29:19.491Z,2.67
2023-04-30T09:31:48.234Z,2.70
2023-04-30T09:34:16.042Z,2.50
2023-04-30T09:36:54.161Z,3.10
2023-04-30T09:39:21.865Z,2.30
2023-04-30T09:41:51.699Z,2.30
2023-04-30T09:44:29.163Z,2.73
2023-04-30T09:46:58.075Z,2.67
2023-04-30T09:49:26.045Z,2.93
2023-04-30T09:51:57.529Z,2.67
2023-04-30T09:54:26.374Z,2.90
2023-04-30T09:56:55.896Z,2.60
2023-04-30T09:59:24.711Z,2.50
2023-04-30T10:01:52.449Z,2.40
2023-04-30T10:04:20.661Z,2.70
2023-04-30T10:06:49.244Z,2.53
2023-04-30T10:09:17.672Z,2.63
2023-04-30T10:11:46.187Z,3.00
2023-04-30T10:14:16.396Z,2.63
2023-04-30T10:16:46.194Z,2.50
2023-04-30T10:19:15.908Z,2.53
2023-04-30T10:21:44.208Z,2.47
2023-04-30T10:24:14.944Z,2.40
2023-04-30T10:26:43.523Z,3.30
2023-04-30T10:29:11.487Z,2.20
2023-04-30T10:31:41.397Z,2.60
2023-04-30T10:34:15.545Z,2.53
2023-04-30T10:36:46.010Z,2.40
2023-04-30T10:39:14.146Z,2.53
2023-04-30T10:41:42.270Z,2.57
2023-04-30T10:44:10.534Z,2.30
2023-04-30T10:46:39.983Z,2.57
2023-04-30T10:49:08.756Z,2.27
2023-04-30T10:51:46.928Z,2.50
2023-04-30T10:54:17.974Z,2.60
2023-04-30T10:56:47.084Z,2.50
2023-04-30T10:59:16.109Z,2.70
2023-04-30T11:01:58.849Z,2.60
2023-04-30T11:04:27.315Z,2.37
2023-04-30T11:07:03.875Z,2.60
2023-04-30T11:09:42.465Z,2.93
2023-04-30T11:12:12.488Z,2.77
2023-04-30T11:14:44.882Z,2.70
2023-04-30T11:17:22.684Z,2.30
2023-04-30T11:19:51.202Z,2.33
2023-04-30T11:22:24.424Z,1.93
2023-04-30T11:25:02.019Z,1.90
2023-04-30T11:27:30.605Z,2.03
2023-04-30T11:29:59.481Z,2.00
2023-04-30T11:32:33.096Z,2.37
2023-04-30T11:35:01.724Z,2.10
2023-04-30T11:37:32.581Z,2.43
2023-04-30T11:40:02.530Z,1.90
2023-04-30T11:42:31.317Z,2.37
2023-04-30T11:45:05.705Z,1.93
2023-04-30T11:47:45.420Z,1.80
2023-04-30T11:50:14.346Z,2.23
2023-04-30T11:52:42.744Z,1.80
2023-04-30T11:55:15.690Z,1.67
2023-04-30T11:57:44.332Z,1.53
2023-04-30T12:00:13.625Z,1.87
2023-04-30T12:02:41.787Z,1.60
2023-04-30T12:05:18.519Z,1.50
2023-04-30T12:07:47.725Z,1.87
2023-04-30T12:10:16.087Z,1.60
2023-04-30T12:12:44.401Z,1.60
2023-04-30T12:15:14.136Z,1.83
2023-04-30T12:17:41.910Z,1.90
2023-04-30T12:20:10.916Z,1.50
2023-04-30T12:22:40.223Z,1.47
2023-04-30T12:25:10.288Z,2.07
2023-04-30T12:27:38.408Z,2.10
2023-04-30T12:30:09.669Z,1.97
2023-04-30T12:32:41.747Z,1.90
2023-04-30T12:35:11.126Z,1.70
2023-04-30T12:37:43.216Z,1.80
2023-04-30T12:40:11.940Z,2.07
2023-04-30T12:42:39.948Z,1.47
2023-04-30T12:45:09.634Z,1.87
2023-04-30T12:47:40.657Z,1.70
2023-04-30T12:50:11.612Z,1.50
2023-04-30T12:52:41.401Z,1.60
2023-04-30T12:55:19.189Z,1.73
2023-04-30T12:58:08.810Z,1.43
2023-04-30T13:00:51.067Z,2.03
2023-04-30T13:03:19.913Z,1.90
2023-04-30T13:05:49.676Z,2.20
2023-04-30T13:08:18.992Z,2.80
2023-04-30T13:10:47.340Z,2.50
2023-04-30T13:13:15.753Z,2.90
2023-04-30T13:15:43.649Z,2.40
2023-04-30T13:18:12.070Z,2.67
2023-04-30T13:20:39.944Z,3.00
2023-04-30T13:23:08.005Z,2.77
2023-04-30T13:25:37.270Z,2.70
2023-04-30T13:28:05.974Z,3.30
2023-04-30T13:30:34.440Z,2.90
2023-04-30T13:33:02.770Z,2.60
2023-04-30T13:35:30.894Z,3.10
2023-04-30T13:38:00.303Z,3.07
2023-04-30T13:40:28.472Z,2.63
2023-04-30T13:42:57.535Z,2.80
2023-04-30T13:45:25.232Z,3.17
2023-04-30T13:47:53.428Z,3.33
2023-04-30T13:50:21.796Z,3.33
2023-04-30T13:52:49.874Z,3.03
2023-04-30T13:55:18.134Z,2.97
2023-04-30T13:57:45.989Z,3.37
2023-04-30T14:00:17.247Z,2.50
2023-04-30T14:02:46.151Z,2.50
2023-04-30T14:05:14.111Z,2.70
2023-04-30T14:07:43.415Z,2.50
2023-04-30T14:10:12.389Z,2.63
2023-04-30T14:12:40.092Z,2.90
2023-04-30T14:15:09.104Z,2.80
2023-04-30T14:17:38.582Z,2.70
2023-04-30T14:20:08.038Z,3.10
2023-04-30T14:22:38.354Z,2.93
2023-04-30T14:25:07.050Z,2.40
2023-04-30T14:27:34.853Z,2.90
2023-04-30T14:30:09.275Z,2.50
2023-04-30T14:32:38.736Z,2.03
2023-04-30T14:35:07.778Z,2.40
2023-04-30T14:37:35.596Z,1.83
2023-04-30T14:40:05.645Z,1.90
2023-04-30T14:42:33.871Z,1.50
2023-04-30T14:45:02.178Z,1.77
2023-04-30T14:47:30.043Z,1.70
2023-04-30T14:50:02.529Z,1.70
2023-04-30T14:52:30.480Z,1.80
2023-04-30T14:54:58.674Z,1.43
2023-04-30T14:57:27.693Z,1.80
2023-04-30T14:59:57.958Z,1.90
2023-04-30T15:02:26.451Z,1.50
2023-04-30T15:04:54.424Z,1.83
2023-04-30T15:07:23.705Z,2.13
2023-04-30T15:09:52.500Z,1.43
2023-04-30T15:12:20.920Z,1.60
2023-04-30T15:14:48.848Z,1.40
2023-04-30T15:17:16.767Z,1.60
2023-04-30T15:19:44.751Z,1.70
2023-04-30T15:22:13.073Z,1.50
2023-04-30T15:24:42.435Z,1.20
2023-04-30T15:27:10.794Z,1.50
2023-04-30T15:29:40.368Z,1.30
2023-04-30T15:32:08.573Z,1.50
2023-04-30T15:34:36.272Z,1.50
2023-04-30T15:37:04.643Z,1.50
2023-04-30T15:39:32.535Z,1.43
2023-04-30T15:42:02.286Z,1.50
2023-04-30T15:44:30.228Z,1.90
2023-04-30T15:46:58.905Z,1.90
2023-04-30T15:49:26.874Z,1.70
2023-04-30T15:51:55.163Z,1.43
2023-04-30T15:54:23.531Z,1.80
2023-04-30T15:56:52.487Z,1.80
2023-04-30T15:59:22.151Z,1.60
2023-04-30T16:01:50.527Z,1.30
2023-04-30T16:04:18.543Z,1.43
2023-04-30T16:06:46.656Z,1.60
2023-04-30T16:09:19.563Z,2.03
2023-04-30T16:11:49.043Z,1.40
2023-04-30T16:14:16.965Z,1.70
2023-04-30T16:16:46.773Z,1.53
2023-04-30T16:19:14.942Z,1.23
2023-04-30T16:21:42.925Z,1.63
2023-04-30T16:24:11.345Z,1.40
2023-04-30T16:26:39.174Z,1.43
2023-04-30T16:29:07.279Z,1.53
2023-04-30T16:31:35.670Z,1.50
2023-04-30T16:34:05.469Z,1.60
2023-04-30T16:36:33.769Z,1.57
2023-04-30T16:39:02.067Z,1.67
2023-04-30T16:41:30.444Z,1.30
2023-04-30T16:43:59.640Z,1.63
2023-04-30T16:46:28.006Z,1.80
2023-04-30T16:48:56.430Z,1.50
2023-04-30T16:51:27.780Z,1.80
2023-04-30T16:53:55.693Z,1.70
2023-04-30T16:56:23.992Z,1.83
2023-04-30T16:58:52.139Z,1.93
2023-04-30T17:01:20.463Z,1.80
2023-04-30T17:03:48.561Z,1.60
2023-04-30T17:06:16.939Z,1.70
2023-04-30T17:08:46.298Z,1.83
2023-04-30T17:11:14.638Z,2.23
2023-04-30T17:13:44.562Z,2.10
2023-04-30T17:16:12.582Z,2.13
2023-04-30T17:18:41.017Z,2.17
2023-04-30T17:21:08.886Z,2.17
2023-04-30T17:23:36.824Z,1.83
2023-04-30T17:26:06.483Z,2.73
2023-04-30T17:28:34.682Z,3.50
2023-04-30T17:31:03.991Z,2.60
2023-04-30T17:33:32.120Z,2.90
2023-04-30T17:36:00.061Z,3.10
2023-04-30T17:38:28.300Z,4.60
2023-04-30T17:40:57.627Z,3.70
2023-04-30T17:43:27.089Z,3.50
2023-04-30T17:45:56.310Z,3.60
2023-04-30T17:48:24.363Z,3.43
2023-04-30T17:50:53.224Z,3.23
2023-04-30T17:53:21.307Z,3.97
2023-04-30T17:55:49.369Z,4.57
2023-04-30T17:58:17.436Z,4.20
2023-04-30T18:00:46.950Z,3.70
2023-04-30T18:03:15.393Z,3.90
2023-04-30T18:05:45.641Z,4.20
2023-04-30T18:08:13.723Z,4.00
2023-04-30T18:10:41.730Z,4.37
2023-04-30T18:13:10.415Z,4.37
2023-04-30T18:15:38.715Z,5.03
2023-04-30T18:18:08.351Z,5.40
2023-04-30T18:20:36.403Z,5.70
2023-04-30T18:23:05.265Z,5.37
2023-04-30T18:25:34.793Z,5.47
2023-04-30T18:28:02.933Z,4.80
2023-04-30T18:30:34.733Z,4.50
2023-04-30T18:33:02.919Z,5.57
2023-04-30T18:35:32.684Z,6.23
2023-04-30T18:38:00.878Z,5.53
2023-04-30T18:40:29.331Z,6.63
2023-04-30T18:42:57.825Z,5.63
2023-04-30T18:45:26.540Z,5.30
2023-04-30T18:47:54.706Z,6.13
2023-04-30T18:50:22.838Z,5.80
2023-04-30T18:52:52.240Z,5.83
2023-04-30T18:55:20.645Z,5.47
2023-04-30T18:57:50.701Z,5.07
2023-04-30T19:00:18.805Z,5.50
2023-04-30T19:02:46.826Z,4.87
2023-04-30T19:05:16.066Z,4.77
2023-04-30T19:07:44.005Z,5.53
2023-04-30T19:10:13.572Z,5.60
2023-04-30T19:12:44.012Z,5.30
2023-04-30T19:15:14.974Z,4.97
2023-04-30T19:17:43.049Z,5.13
2023-04-30T19:20:12.413Z,4.53
2023-04-30T19:22:40.876Z,4.87
2023-04-30T19:25:09.835Z,4.30
2023-04-30T19:27:39.303Z,4.60
2023-04-30T19:30:08.812Z,4.27
2023-04-30T19:32:37.255Z,4.53
2023-04-30T19:35:05.853Z,4.50
2023-04-30T19:37:33.951Z,4.40
2023-04-30T19:40:01.974Z,4.70
2023-04-30T19:42:30.373Z,3.93
2023-04-30T19:44:59.955Z,3.97
2023-04-30T19:47:28.104Z,4.10
2023-04-30T19:49:56.395Z,3.73
2023-04-30T19:52:24.679Z,3.60
2023-04-30T19:54:52.849Z,3.90
2023-04-30T19:57:20.960Z,3.87
2023-04-30T19:59:49.353Z,4.10
2023-04-30T20:02:18.838Z,4.00
2023-04-30T20:04:46.998Z,3.83
2023-04-30T20:07:15.624Z,3.20
2023-04-30T20:09:43.618Z,3.43
2023-04-30T20:12:11.760Z,3.40
2023-04-30T20:14:39.887Z,3.40
2023-04-30T20:17:08.099Z,3.70
2023-04-30T20:19:37.685Z,4.10
2023-04-30T20:22:13.056Z,3.97
2023-04-30T20:24:45.097Z,3.47
2023-04-30T20:27:15.213Z,4.00
2023-04-30T20:29:46.243Z,3.60
2023-04-30T20:32:14.344Z,3.30
2023-04-30T20:34:43.953Z,3.10
2023-04-30T20:37:12.151Z,3.43
2023-04-30T20:39:40.947Z,3.73
2023-04-30T20:42:16.714Z,3.40
2023-04-30T20:44:44.933Z,3.40
2023-04-30T20:47:14.513Z,3.17
2023-04-30T20:49:44.370Z,3.40
2023-04-30T20:52:12.480Z,3.17
2023-04-30T20:54:40.726Z,2.80
2023-04-30T20:57:09.637Z,3.20
2023-04-30T20:59:38.286Z,3.23
2023-04-30T21:02:06.624Z,3.33
2023-04-30T21:04:34.481Z,3.63
2023-04-30T21:07:03.953Z,3.40
2023-04-30T21:09:32.792Z,3.50
2023-04-30T21:12:00.653Z,3.63
2023-04-30T21:14:28.533Z,3.70
2023-04-30T21:16:56.571Z,2.93
2023-04-30T21:19:24.665Z,3.00
2023-04-30T21:21:53.187Z,2.40
2023-04-30T21:24:22.406Z,2.90
2023-04-30T21:26:50.215Z,2.90
2023-04-30T21:29:18.164Z,3.13
2023-04-30T21:31:46.122Z,2.80
2023-04-30T21:34:14.062Z,3.53
2023-04-30T21:36:42.453Z,2.93
2023-04-30T21:39:10.469Z,3.07
2023-04-30T21:41:39.921Z,3.23
2023-04-30T21:44:07.892Z,2.80
2023-04-30T21:46:35.892Z,2.57
2023-04-30T21:49:07.424Z,2.40
2023-04-30T21:51:36.506Z,2.60
2023-04-30T21:54:04.447Z,2.80
2023-04-30T21:56:37.108Z,2.47
2023-04-30T21:59:06.741Z,2.73
2023-04-30T22:01:34.955Z,2.97
2023-04-30T22:04:06.835Z,2.60
2023-04-30T22:06:35.361Z,2.43
2023-04-30T22:09:04.614Z,2.90
2023-04-30T22:11:34.631Z,2.60
2023-04-30T22:14:04.183Z,2.30
2023-04-30T22:16:33.759Z,2.67
2023-04-30T22:19:01.635Z,2.83
2023-04-30T22:21:29.631Z,2.50
2023-04-30T22:23:58.407Z,2.80
2023-04-30T22:26:26.997Z,2.03
2023-04-30T22:28:54.885Z,3.00
2023-04-30T22:31:23.040Z,2.30
2023-04-30T22:33:52.570Z,2.70
2023-04-30T22:36:20.653Z,2.30
2023-04-30T22:38:49.433Z,2.30
2023-04-30T22:41:17.491Z,2.43
2023-04-30T22:43:46.514Z,2.23
2023-04-30T22:46:15.711Z,2.33
2023-04-30T22:48:44.474Z,2.53
2023-04-30T22:51:13.940Z,2.47
2023-04-30T22:53:42.343Z,2.33
2023-04-30T22:56:10.294Z,2.10
2023-04-30T22:58:38.673Z,2.33
2023-04-30T23:01:06.782Z,2.73
2023-04-30T23:03:35.650Z,2.27
2023-04-30T23:06:03.697Z,2.27
2023-04-30T23:08:33.239Z,2.33
2023-04-30T23:11:01.609Z,2.17
2023-04-30T23:13:30.039Z,2.27
2023-04-30T23:15:58.960Z,2.30
2023-04-30T23:18:27.579Z,2.50
2023-04-30T23:20:58.917Z,2.40
2023-04-30T23:23:27.062Z,2.50
2023-04-30T23:25:57.024Z,2.27
2023-04-30T23:28:25.529Z,2.30
2023-04-30T23:30:54.222Z,2.40
2023-04-30T23:33:22.735Z,1.90
2023-04-30T23:35:52.707Z,2.30
2023-04-30T23:38:23.228Z,1.90
2023-04-30T23:40:51.297Z,2.30
2023-04-30T23:43:21.238Z,2.37
2023-04-30T23:45:49.143Z,2.30
2023-04-30T23:48:17.123Z,2.07
2023-04-30T23:50:45.114Z,2.10
2023-04-30T23:53:14.126Z,2.77
2023-04-30T23:55:42.778Z,2.20
2023-04-30T23:58:10.764Z,2.50
